createdAt,value
2022-12-31T00:00:18.231Z,0.05
2022-12-31T00:01:20.056Z,0.69
2022-12-31T00:02:22.102Z,0.41
2022-12-31T00:03:24.028Z,0.26
2022-12-31T00:04:24.986Z,0.51
2022-12-31T00:05:27.075Z,0.63
2022-12-31T00:06:28.932Z,0
2022-12-31T00:08:31.925Z,0.28
2022-12-31T00:09:32.926Z,0
2022-12-31T00:10:34.012Z,0.21
2022-12-31T00:11:35.979Z,1.01
2022-12-31T00:12:37.340Z,0.17
2022-12-31T00:13:39.037Z,1.02
2022-12-31T00:14:41.106Z,1.22
2022-12-31T00:15:43.107Z,0
2022-12-31T00:16:44.969Z,0.11
2022-12-31T00:17:47.135Z,0.36
2022-12-31T00:18:49.066Z,0.37
2022-12-31T00:19:50.934Z,0.1
2022-12-31T00:20:51.966Z,0.55
2022-12-31T00:21:52.915Z,0.74
2022-12-31T00:22:54.098Z,0.7
2022-12-31T00:23:56.081Z,0.22
2022-12-31T00:24:57.976Z,1.34
2022-12-31T00:25:59.048Z,0.92
2022-12-31T00:27:01.017Z,1.21
2022-12-31T00:28:02.954Z,0.23
2022-12-31T00:29:04.004Z,0.31
2022-12-31T00:30:06.053Z,0.57
2022-12-31T00:31:08.143Z,0.13
2022-12-31T00:32:09.868Z,0.24
2022-12-31T00:33:11.000Z,0.95
2022-12-31T00:34:12.051Z,1.2
2022-12-31T00:35:14.114Z,0.31
2022-12-31T00:36:16.374Z,0.25
2022-12-31T00:37:18.056Z,0.2
2022-12-31T00:38:20.125Z,0.75
2022-12-31T00:39:22.062Z,0
2022-12-31T00:40:24.177Z,0.16
2022-12-31T00:41:26.020Z,0.32
2022-12-31T00:42:28.101Z,1.11
2022-12-31T00:43:30.119Z,0.49
2022-12-31T00:44:32.014Z,0.88
2022-12-31T00:45:34.036Z,0.32
2022-12-31T00:47:36.970Z,0.98
2022-12-31T00:48:37.994Z,0.29
2022-12-31T00:49:38.976Z,0.14
2022-12-31T00:50:40.116Z,0.21
2022-12-31T00:51:41.995Z,0.39
2022-12-31T00:52:44.075Z,0.71
2022-12-31T00:53:45.999Z,0.09
2022-12-31T00:54:47.252Z,0.51
2022-12-31T00:55:49.157Z,1.3
2022-12-31T00:56:51.001Z,0.88
2022-12-31T00:57:53.096Z,0.36
2022-12-31T00:58:55.019Z,0.12
2022-12-31T00:59:56.974Z,0.16
2022-12-31T01:00:58.156Z,0.36
2022-12-31T01:02:00.316Z,0.65
2022-12-31T01:03:02.130Z,0.46
2022-12-31T01:04:04.069Z,0.15
2022-12-31T01:05:06.085Z,0.08
2022-12-31T01:06:08.121Z,0.38
2022-12-31T01:07:10.257Z,0.18
2022-12-31T01:08:12.048Z,0
2022-12-31T01:09:14.300Z,0
2022-12-31T01:10:16.214Z,0.1
2022-12-31T01:11:18.035Z,0.07
2022-12-31T01:12:20.177Z,0.14
2022-12-31T01:13:22.618Z,0.09
2022-12-31T01:14:24.117Z,0
2022-12-31T01:15:26.149Z,0.32
2022-12-31T01:16:28.136Z,0.1
2022-12-31T01:17:30.095Z,0.25
2022-12-31T01:18:32.038Z,0.28
2022-12-31T01:19:34.174Z,0.33
2022-12-31T01:20:36.204Z,0.29
2022-12-31T01:21:38.851Z,0.61
2022-12-31T01:22:40.175Z,0.3
2022-12-31T01:23:42.223Z,0.07
2022-12-31T01:24:43.973Z,1.1
2022-12-31T01:25:45.179Z,0.12
2022-12-31T01:26:47.136Z,0.19
2022-12-31T01:27:49.199Z,0.85
2022-12-31T01:28:51.060Z,0.46
2022-12-31T01:29:53.115Z,0.08
2022-12-31T01:30:55.002Z,0.18
2022-12-31T01:31:56.075Z,0.5
2022-12-31T01:32:57.995Z,0.32
2022-12-31T01:34:00.111Z,0.48
2022-12-31T01:35:02.314Z,0.39
2022-12-31T01:36:04.167Z,0.29
2022-12-31T01:37:05.960Z,0.12
2022-12-31T01:38:07.034Z,0.71
2022-12-31T01:39:09.064Z,0.2
2022-12-31T01:40:11.161Z,0.59
2022-12-31T01:41:13.194Z,0.41
2022-12-31T01:42:15.319Z,0.21
2022-12-31T01:43:17.385Z,0.22
2022-12-31T01:44:19.154Z,0.41
2022-12-31T01:45:21.329Z,0.19
2022-12-31T01:46:23.292Z,0.19
2022-12-31T01:47:25.075Z,0.76
2022-12-31T01:48:27.403Z,0.49
2022-12-31T01:49:29.095Z,0.28
2022-12-31T01:50:31.155Z,0.24
2022-12-31T01:51:33.218Z,0.65
2022-12-31T01:52:35.086Z,0.98
2022-12-31T01:53:40.681Z,1.21
2022-12-31T01:54:39.034Z,0.44
2022-12-31T01:55:41.447Z,0.5
2022-12-31T01:56:43.259Z,0.76
2022-12-31T01:57:45.193Z,1.19
2022-12-31T01:58:47.039Z,0.96
2022-12-31T01:59:48.019Z,1.01
2022-12-31T02:00:50.258Z,0.63
2022-12-31T02:01:52.215Z,0.44
2022-12-31T02:02:54.496Z,1.02
2022-12-31T02:06:54.421Z,0.66
2022-12-31T02:07:56.104Z,1.99
2022-12-31T02:08:58.135Z,0.68
2022-12-31T02:10:00.188Z,1.47
2022-12-31T02:11:02.195Z,0.58
2022-12-31T02:12:04.013Z,1.3
2022-12-31T02:13:05.027Z,1.47
2022-12-31T02:14:06.088Z,0.55
2022-12-31T02:15:07.094Z,1.27
2022-12-31T02:16:09.126Z,1.14
2022-12-31T02:17:11.207Z,1.41
2022-12-31T02:18:13.234Z,1.02
2022-12-31T02:19:15.174Z,0.85
2022-12-31T02:20:17.173Z,1.27
2022-12-31T02:21:19.004Z,1.29
2022-12-31T02:22:19.997Z,0.78
2022-12-31T02:23:21.152Z,0.49
2022-12-31T02:24:23.153Z,1.03
2022-12-31T02:25:25.039Z,0.91
2022-12-31T02:26:26.053Z,0.17
2022-12-31T02:27:28.159Z,0.93
2022-12-31T02:28:30.115Z,1.15
2022-12-31T02:29:32.145Z,0.9
2022-12-31T02:30:34.204Z,0.4
2022-12-31T02:31:36.193Z,0.23
2022-12-31T02:32:38.074Z,1.28
2022-12-31T02:33:40.037Z,0.93
2022-12-31T02:34:41.058Z,0.63
2022-12-31T02:35:43.174Z,0.88
2022-12-31T02:36:45.193Z,0.39
2022-12-31T02:37:47.055Z,0.65
2022-12-31T02:38:49.115Z,0.54
2022-12-31T02:39:51.096Z,0.49
2022-12-31T02:40:53.293Z,0.88
2022-12-31T02:41:55.032Z,0.42
2022-12-31T02:42:56.034Z,0.46
2022-12-31T02:43:57.078Z,0.31
2022-12-31T02:44:59.056Z,0.55
2022-12-31T02:46:00.032Z,0.52
2022-12-31T02:47:01.113Z,0.31
2022-12-31T02:48:03.088Z,0.11
2022-12-31T02:49:05.100Z,0.64
2022-12-31T02:50:07.093Z,0.3
2022-12-31T02:51:09.065Z,0.23
2022-12-31T02:52:11.025Z,0.09
2022-12-31T02:53:12.046Z,0.36
2022-12-31T02:54:14.149Z,0.24
2022-12-31T02:55:16.173Z,0.06
2022-12-31T02:56:18.071Z,0
2022-12-31T02:57:20.176Z,0.14
2022-12-31T02:58:22.202Z,0.49
2022-12-31T02:59:24.153Z,0.58
2022-12-31T03:00:26.267Z,0.44
2022-12-31T03:01:28.287Z,0.34
2022-12-31T03:02:30.172Z,0.37
2022-12-31T03:03:31.036Z,0.5
2022-12-31T03:04:32.109Z,0.08
2022-12-31T03:05:34.017Z,0.12
2022-12-31T03:06:35.174Z,0.1
2022-12-31T03:07:37.079Z,0.22
2022-12-31T03:08:39.014Z,0.12
2022-12-31T03:09:40.075Z,0.1
2022-12-31T03:10:42.077Z,0
2022-12-31T03:11:44.239Z,0
2022-12-31T03:12:46.071Z,0.63
2022-12-31T03:13:48.069Z,0.35
2022-12-31T03:14:50.134Z,0
2022-12-31T03:15:52.305Z,0
2022-12-31T03:16:54.525Z,0
2022-12-31T03:17:56.073Z,0
2022-12-31T03:18:58.008Z,0.18
2022-12-31T03:19:59.016Z,0.22
2022-12-31T03:21:00.046Z,0
2022-12-31T03:22:01.172Z,0
2022-12-31T03:23:03.054Z,0.41
2022-12-31T03:24:04.101Z,0.11
2022-12-31T03:25:06.045Z,0
2022-12-31T03:26:07.144Z,0
2022-12-31T03:27:09.099Z,0
2022-12-31T03:28:11.180Z,0
2022-12-31T03:29:13.051Z,0.18
2022-12-31T03:30:14.154Z,0.37
2022-12-31T03:31:16.430Z,0.2
2022-12-31T03:32:18.204Z,0.18
2022-12-31T03:33:20.118Z,0
2022-12-31T03:34:22.239Z,0.4
2022-12-31T03:35:24.135Z,0.24
2022-12-31T03:36:26.134Z,0.69
2022-12-31T03:37:28.195Z,0
2022-12-31T03:38:30.254Z,0.11
2022-12-31T03:39:32.142Z,0
2022-12-31T03:40:34.514Z,0
2022-12-31T03:41:36.134Z,0.28
2022-12-31T03:42:38.057Z,0.15
2022-12-31T03:43:39.115Z,0
2022-12-31T03:44:41.094Z,0.24
2022-12-31T03:45:43.097Z,0
2022-12-31T03:46:45.204Z,0
2022-12-31T03:47:47.095Z,0
2022-12-31T03:48:49.096Z,0
2022-12-31T03:49:51.115Z,0.33
2022-12-31T03:50:53.161Z,0.37
2022-12-31T03:51:55.174Z,0
2022-12-31T03:52:57.106Z,0
2022-12-31T03:53:59.216Z,0
2022-12-31T03:55:01.094Z,0.19
2022-12-31T03:56:03.114Z,0.13
2022-12-31T03:57:05.157Z,0.12
2022-12-31T03:58:07.118Z,0.38
2022-12-31T03:59:09.202Z,0.24
2022-12-31T04:00:11.114Z,0.2
2022-12-31T04:01:13.237Z,0.68
2022-12-31T04:02:15.383Z,0.2
2022-12-31T04:03:17.346Z,0.19
2022-12-31T04:04:19.277Z,0.61
2022-12-31T04:05:21.058Z,0.26
2022-12-31T04:06:21.998Z,0
2022-12-31T04:07:23.132Z,0.24
2022-12-31T04:08:25.151Z,1.35
2022-12-31T04:09:27.124Z,0.47
2022-12-31T04:10:29.206Z,0.21
2022-12-31T04:11:31.295Z,0.33
2022-12-31T04:12:33.175Z,0.11
2022-12-31T04:13:35.173Z,0.33
2022-12-31T04:14:37.119Z,0.17
2022-12-31T04:15:39.163Z,0.52
2022-12-31T04:16:41.126Z,0.85
2022-12-31T04:17:43.343Z,0.33
2022-12-31T04:18:45.194Z,0.61
2022-12-31T04:19:47.134Z,0.31
2022-12-31T04:20:49.155Z,0
2022-12-31T04:21:51.176Z,0
2022-12-31T04:22:53.500Z,0
2022-12-31T04:23:55.119Z,0.11
2022-12-31T04:24:56.093Z,0.28
2022-12-31T04:25:57.114Z,0.15
2022-12-31T04:27:02.188Z,0.57
2022-12-31T04:28:00.124Z,0.18
2022-12-31T04:29:02.234Z,0
2022-12-31T04:30:04.181Z,0
2022-12-31T04:31:06.270Z,0.36
2022-12-31T04:32:08.219Z,0.35
2022-12-31T04:33:09.194Z,0.15
2022-12-31T04:34:11.176Z,0.59
2022-12-31T04:35:13.183Z,0.22
2022-12-31T04:36:15.216Z,0.13
2022-12-31T04:37:17.216Z,0.17
2022-12-31T04:38:19.384Z,0.05
2022-12-31T04:39:21.183Z,0.35
2022-12-31T04:40:23.168Z,0.28
2022-12-31T04:41:25.678Z,0.14
2022-12-31T04:42:27.254Z,0.29
2022-12-31T04:43:29.742Z,0.4
2022-12-31T04:44:31.179Z,0.23
2022-12-31T04:45:33.291Z,0.11
2022-12-31T04:46:35.137Z,0.3
2022-12-31T04:47:37.178Z,0.22
2022-12-31T04:48:39.180Z,1.11
2022-12-31T04:49:41.213Z,0.51
2022-12-31T04:50:48.337Z,0.1
2022-12-31T04:51:50.135Z,0.2
2022-12-31T04:52:52.235Z,0.08
2022-12-31T04:53:54.195Z,0
2022-12-31T04:54:56.182Z,0.64
2022-12-31T04:55:58.117Z,0.21
2022-12-31T04:57:00.216Z,0.34
2022-12-31T04:58:02.195Z,0.51
2022-12-31T04:59:04.342Z,0.08
2022-12-31T05:00:06.397Z,0.29
2022-12-31T05:01:08.251Z,0.4
2022-12-31T05:02:10.379Z,0.25
2022-12-31T05:03:12.203Z,0.5
2022-12-31T05:04:14.254Z,0.58
2022-12-31T05:05:16.255Z,0.83
2022-12-31T05:06:18.208Z,1.22
2022-12-31T05:07:20.244Z,0.46
2022-12-31T05:08:22.163Z,0.52
2022-12-31T05:09:24.244Z,0.48
2022-12-31T05:10:26.096Z,0.28
2022-12-31T05:11:27.117Z,0.56
2022-12-31T05:12:29.228Z,1.39
2022-12-31T05:13:33.279Z,0.83
2022-12-31T05:14:32.097Z,0.61
2022-12-31T05:15:34.135Z,0.54
2022-12-31T05:16:36.230Z,0.64
2022-12-31T05:17:38.195Z,0.66
2022-12-31T05:18:40.163Z,0.88
2022-12-31T05:19:42.231Z,0.47
2022-12-31T05:20:44.215Z,0.94
2022-12-31T05:21:46.255Z,0.92
2022-12-31T05:22:48.076Z,0.28
2022-12-31T05:23:49.037Z,0.2
2022-12-31T05:24:50.072Z,0.91
2022-12-31T05:25:51.215Z,1.36
2022-12-31T05:26:53.176Z,0.4
2022-12-31T05:27:55.163Z,0.88
2022-12-31T05:28:57.182Z,1.22
2022-12-31T05:29:59.128Z,0.92
2022-12-31T05:31:00.168Z,0.43
2022-12-31T05:32:01.902Z,0.36
2022-12-31T05:33:03.456Z,0.14
2022-12-31T05:34:05.155Z,0.11
2022-12-31T05:35:07.256Z,0.35
2022-12-31T05:36:09.116Z,0.56
2022-12-31T05:37:10.077Z,0.2
2022-12-31T05:38:11.155Z,0.55
2022-12-31T05:39:13.416Z,0.25
2022-12-31T05:40:15.175Z,0.64
2022-12-31T05:41:17.198Z,0.31
2022-12-31T05:42:19.198Z,0.32
2022-12-31T05:43:21.116Z,0.73
2022-12-31T05:44:22.162Z,0.34
2022-12-31T05:45:30.288Z,0.25
2022-12-31T05:46:26.196Z,0.79
2022-12-31T05:47:28.179Z,0.39
2022-12-31T05:48:30.248Z,0.87
2022-12-31T05:49:32.437Z,0.46
2022-12-31T05:50:34.323Z,0.63
2022-12-31T05:51:36.232Z,0.69
2022-12-31T05:52:38.884Z,1.11
2022-12-31T05:53:40.435Z,0.67
2022-12-31T05:54:42.293Z,0.87
2022-12-31T05:55:44.257Z,0.16
2022-12-31T05:56:46.269Z,0.35
2022-12-31T05:57:48.263Z,0.32
2022-12-31T05:58:50.375Z,1.11
2022-12-31T05:59:52.395Z,0.78
2022-12-31T06:00:54.155Z,0.93
2022-12-31T06:01:56.176Z,0.55
2022-12-31T06:02:58.395Z,0.48
2022-12-31T06:04:00.444Z,1.06
2022-12-31T06:05:02.336Z,1.15
2022-12-31T06:06:04.286Z,0.29
2022-12-31T06:07:06.320Z,0.25
2022-12-31T06:08:08.160Z,0.23
2022-12-31T06:09:09.221Z,0.45
2022-12-31T06:10:11.182Z,0.71
2022-12-31T06:11:13.308Z,0.49
2022-12-31T06:12:15.241Z,0.22
2022-12-31T06:13:17.275Z,0.96
2022-12-31T06:14:19.224Z,0.34
2022-12-31T06:15:21.236Z,0.62
2022-12-31T06:16:23.331Z,0.44
2022-12-31T06:17:25.162Z,0.42
2022-12-31T06:18:27.104Z,0.6
2022-12-31T06:19:28.195Z,0.72
2022-12-31T06:20:31.137Z,0.36
2022-12-31T06:21:32.287Z,0.41
2022-12-31T06:22:34.175Z,0.38
2022-12-31T06:23:36.356Z,0.24
2022-12-31T06:24:38.175Z,0.38
2022-12-31T06:25:40.276Z,0.44
2022-12-31T06:26:42.196Z,0.41
2022-12-31T06:27:44.137Z,0.12
2022-12-31T06:28:46.147Z,1
2022-12-31T06:29:48.212Z,0.62
2022-12-31T06:30:50.314Z,1.41
2022-12-31T06:31:52.185Z,0.74
2022-12-31T06:32:54.156Z,0.92
2022-12-31T06:33:56.134Z,0.9
2022-12-31T06:34:57.215Z,0.59
2022-12-31T06:35:59.660Z,0.43
2022-12-31T06:37:01.230Z,0.97
2022-12-31T06:38:03.199Z,0.41
2022-12-31T06:39:05.219Z,0.34
2022-12-31T06:40:07.402Z,0.55
2022-12-31T06:41:09.357Z,0.85
2022-12-31T06:42:11.197Z,0.97
2022-12-31T06:43:13.297Z,0.62
2022-12-31T06:44:15.204Z,0.56
2022-12-31T06:45:17.376Z,0.79
2022-12-31T06:46:19.211Z,0.45
2022-12-31T06:47:20.195Z,0.42
2022-12-31T06:48:22.617Z,0.69
2022-12-31T06:49:24.255Z,0.95
2022-12-31T06:50:26.257Z,0.71
2022-12-31T06:51:28.294Z,0.28
2022-12-31T06:52:30.248Z,0.29
2022-12-31T06:53:31.236Z,0.76
2022-12-31T06:54:33.399Z,0.9
2022-12-31T06:55:35.135Z,0.92
2022-12-31T06:56:36.675Z,0.72
2022-12-31T06:57:38.358Z,0.64
2022-12-31T06:58:40.176Z,0.83
2022-12-31T06:59:42.239Z,0.44
2022-12-31T07:00:44.308Z,0.57
2022-12-31T07:01:46.746Z,0.58
2022-12-31T07:02:48.635Z,0.74
2022-12-31T07:03:50.185Z,1.06
2022-12-31T07:04:52.337Z,0.55
2022-12-31T07:05:54.195Z,0.54
2022-12-31T07:06:56.202Z,1.92
2022-12-31T07:07:58.248Z,0.97
2022-12-31T07:09:00.491Z,0.73
2022-12-31T07:10:02.356Z,0.7
2022-12-31T07:11:04.181Z,0.98
2022-12-31T07:12:06.147Z,0.67
2022-12-31T07:13:07.625Z,1.43
2022-12-31T07:14:09.256Z,1.49
2022-12-31T07:15:11.210Z,1.24
2022-12-31T07:16:13.301Z,0.59
2022-12-31T07:17:15.255Z,0.46
2022-12-31T07:18:17.331Z,0.94
2022-12-31T07:19:19.219Z,0.3
2022-12-31T07:20:21.240Z,0.58
2022-12-31T07:21:23.270Z,0.66
2022-12-31T07:22:25.235Z,1.41
2022-12-31T07:23:27.289Z,1.14
2022-12-31T07:24:29.161Z,0.76
2022-12-31T07:25:30.320Z,1.18
2022-12-31T07:26:32.400Z,1.37
2022-12-31T07:27:34.238Z,1.3
2022-12-31T07:28:36.315Z,1.11
2022-12-31T07:29:38.237Z,0.9
2022-12-31T07:30:40.276Z,0.53
2022-12-31T07:31:42.251Z,0.27
2022-12-31T07:32:44.178Z,0.89
2022-12-31T07:33:45.236Z,1.09
2022-12-31T07:34:47.315Z,0.84
2022-12-31T07:35:49.240Z,0.78
2022-12-31T07:36:51.259Z,0.53
2022-12-31T07:37:53.360Z,1.35
2022-12-31T07:38:55.459Z,1.11
2022-12-31T07:39:57.219Z,1.14
2022-12-31T07:41:01.618Z,0.81
2022-12-31T07:42:02.023Z,0.3
2022-12-31T07:43:03.237Z,0.69
2022-12-31T07:44:05.297Z,1.11
2022-12-31T07:45:07.264Z,0.94
2022-12-31T07:46:09.361Z,1.06
2022-12-31T07:47:11.217Z,1.25
2022-12-31T07:48:13.223Z,0.96
2022-12-31T07:49:15.215Z,0.81
2022-12-31T07:50:17.300Z,0.96
2022-12-31T07:51:19.336Z,0.75
2022-12-31T07:52:21.411Z,1.53
2022-12-31T07:53:23.357Z,0.8
2022-12-31T07:54:25.332Z,0.78
2022-12-31T07:55:27.516Z,1.72
2022-12-31T07:56:29.322Z,0.5
2022-12-31T07:57:31.295Z,1.64
2022-12-31T07:58:33.364Z,1.29
2022-12-31T07:59:35.195Z,2
2022-12-31T08:00:37.299Z,1.09
2022-12-31T08:01:39.415Z,1.01
2022-12-31T08:02:41.351Z,0.9
2022-12-31T08:03:43.203Z,1.32
2022-12-31T08:04:45.235Z,0.82
2022-12-31T08:05:47.297Z,0.89
2022-12-31T08:06:49.227Z,1.18
2022-12-31T08:07:51.214Z,0.93
2022-12-31T08:08:52.334Z,0.71
2022-12-31T08:09:55.222Z,1.12
2022-12-31T08:10:57.717Z,0.55
2022-12-31T08:11:59.381Z,1.1
2022-12-31T08:13:01.487Z,1.31
2022-12-31T08:14:03.261Z,0.31
2022-12-31T08:15:05.355Z,1.28
2022-12-31T08:16:07.353Z,1.58
2022-12-31T08:17:09.290Z,1.05
2022-12-31T08:18:11.356Z,0.48
2022-12-31T08:19:13.260Z,0.18
2022-12-31T08:20:15.717Z,0.82
2022-12-31T08:21:17.234Z,1.13
2022-12-31T08:22:19.322Z,1.22
2022-12-31T08:23:21.206Z,0.81
2022-12-31T08:24:22.317Z,1.01
2022-12-31T08:25:24.463Z,0.69
2022-12-31T08:26:26.256Z,0.74
2022-12-31T08:27:28.606Z,0.99
2022-12-31T08:28:30.294Z,1.58
2022-12-31T08:29:32.200Z,1.14
2022-12-31T08:30:33.277Z,1.6
2022-12-31T08:31:35.344Z,0.59
2022-12-31T08:32:37.258Z,1.03
2022-12-31T08:33:39.296Z,1.24
2022-12-31T08:34:41.352Z,1.15
2022-12-31T08:35:43.201Z,0.74
2022-12-31T08:36:45.336Z,1.6
2022-12-31T08:37:47.355Z,1.62
2022-12-31T08:38:49.262Z,0.99
2022-12-31T08:39:51.317Z,1.21
2022-12-31T08:40:53.291Z,1.25
2022-12-31T08:41:55.164Z,0.91
2022-12-31T08:42:56.232Z,0.88
2022-12-31T08:43:58.275Z,0.72
2022-12-31T08:45:00.375Z,0.63
2022-12-31T08:46:02.407Z,0.79
2022-12-31T08:47:04.178Z,0.78
2022-12-31T08:48:05.275Z,1.75
2022-12-31T08:49:07.261Z,1.78
2022-12-31T08:50:09.336Z,0.69
2022-12-31T08:51:11.436Z,1.27
2022-12-31T08:52:13.277Z,0.54
2022-12-31T08:53:15.297Z,0.48
2022-12-31T08:54:17.272Z,0.81
2022-12-31T08:55:19.247Z,0.61
2022-12-31T08:56:20.424Z,0.5
2022-12-31T08:57:22.378Z,1.11
2022-12-31T08:58:24.737Z,0.69
2022-12-31T08:59:26.621Z,1.01
2022-12-31T09:00:28.488Z,1.29
2022-12-31T09:01:30.483Z,0.53
2022-12-31T09:02:32.302Z,0.5
2022-12-31T09:03:34.281Z,0.3
2022-12-31T09:04:36.468Z,0.45
2022-12-31T09:05:38.244Z,1.44
2022-12-31T09:06:40.316Z,0.8
2022-12-31T09:07:43.340Z,0.86
2022-12-31T09:08:45.447Z,1.24
2022-12-31T09:09:48.202Z,0.79
2022-12-31T09:10:50.275Z,0.6
2022-12-31T09:11:52.443Z,0.82
2022-12-31T09:12:54.323Z,0.5
2022-12-31T09:13:56.315Z,0.42
2022-12-31T09:14:58.347Z,0.58
2022-12-31T09:16:00.222Z,0.63
2022-12-31T09:17:01.317Z,0.95
2022-12-31T09:18:03.419Z,1.11
2022-12-31T09:19:05.263Z,0.86
2022-12-31T09:20:06.302Z,1.3
2022-12-31T09:21:08.297Z,1.1
2022-12-31T09:22:12.997Z,1.41
2022-12-31T09:23:14.273Z,0.59
2022-12-31T09:24:16.399Z,1.31
2022-12-31T09:25:18.376Z,1.57
2022-12-31T09:26:20.457Z,1.1
2022-12-31T09:27:27.385Z,0.81
2022-12-31T09:28:24.420Z,0.89
2022-12-31T09:29:26.255Z,0.75
2022-12-31T09:30:28.283Z,1.62
2022-12-31T09:31:30.351Z,1.02
2022-12-31T09:32:32.483Z,0.88
2022-12-31T09:33:34.636Z,1.05
2022-12-31T09:34:36.741Z,1.02
2022-12-31T09:35:39.199Z,1.6
2022-12-31T09:36:40.279Z,1.05
2022-12-31T09:37:42.396Z,1.24
2022-12-31T09:38:44.446Z,1.12
2022-12-31T09:39:46.377Z,0.65
2022-12-31T09:40:48.834Z,1.06
2022-12-31T09:41:50.526Z,1.6
2022-12-31T09:42:52.458Z,1.12
2022-12-31T09:43:57.433Z,1.64
2022-12-31T09:44:56.252Z,1.99
2022-12-31T09:45:57.291Z,1.47
2022-12-31T09:46:59.278Z,0.94
2022-12-31T09:48:01.362Z,1.37
2022-12-31T09:49:03.335Z,1.59
2022-12-31T09:50:05.309Z,1.2
2022-12-31T09:51:07.378Z,1.7
2022-12-31T09:52:09.381Z,1.72
2022-12-31T09:53:11.357Z,1.84
2022-12-31T09:54:13.256Z,1.69
2022-12-31T09:55:15.369Z,2.59
2022-12-31T09:56:18.340Z,2.01
2022-12-31T09:57:20.356Z,1.94
2022-12-31T09:58:22.288Z,1.07
2022-12-31T09:59:23.244Z,1.41
2022-12-31T10:00:24.295Z,1.07
2022-12-31T10:01:26.564Z,1.38
2022-12-31T10:02:28.469Z,1.61
2022-12-31T10:03:30.264Z,1.1
2022-12-31T10:04:31.343Z,1.56
2022-12-31T10:05:33.396Z,1.22
2022-12-31T10:06:35.461Z,1.67
2022-12-31T10:07:37.431Z,1.89
2022-12-31T10:08:39.549Z,1.92
2022-12-31T10:09:41.246Z,1.97
2022-12-31T10:10:42.247Z,1.68
2022-12-31T10:11:43.236Z,1.46
2022-12-31T10:12:44.185Z,2.83
2022-12-31T10:13:45.797Z,2.46
2022-12-31T10:14:47.847Z,1.81
2022-12-31T10:15:49.335Z,2.12
2022-12-31T10:16:51.502Z,0.96
2022-12-31T10:17:53.475Z,2.55
2022-12-31T10:18:55.355Z,1.68
2022-12-31T10:19:57.456Z,1.04
2022-12-31T10:20:59.415Z,1.72
2022-12-31T10:22:01.396Z,2.15
2022-12-31T10:23:03.359Z,1.68
2022-12-31T10:24:05.265Z,1.28
2022-12-31T10:25:06.328Z,1.61
2022-12-31T10:26:08.456Z,1.68
2022-12-31T10:27:11.095Z,2.34
2022-12-31T10:28:12.395Z,1.97
2022-12-31T10:29:14.346Z,2.46
2022-12-31T10:30:16.423Z,1.97
2022-12-31T10:31:18.494Z,1.62
2022-12-31T10:32:20.310Z,1.15
2022-12-31T10:33:22.304Z,2.3
2022-12-31T10:34:24.536Z,1.86
2022-12-31T10:35:26.195Z,2.43
2022-12-31T10:36:27.438Z,2.06
2022-12-31T10:37:29.470Z,2.16
2022-12-31T10:38:31.456Z,1.59
2022-12-31T10:39:33.461Z,1.39
2022-12-31T10:40:35.488Z,2.1
2022-12-31T10:41:37.296Z,1.25
2022-12-31T10:42:39.380Z,1.77
2022-12-31T10:43:41.497Z,1.67
2022-12-31T10:44:43.359Z,0.97
2022-12-31T10:45:45.839Z,2.19
2022-12-31T10:46:48.115Z,2.42
2022-12-31T10:47:49.600Z,1.93
2022-12-31T10:48:51.677Z,2.5
2022-12-31T10:49:53.355Z,3.94
2022-12-31T10:50:55.335Z,3.02
2022-12-31T10:51:57.797Z,2.68
2022-12-31T10:53:00.269Z,2.93
2022-12-31T10:54:01.348Z,2.03
2022-12-31T10:55:03.274Z,1.72
2022-12-31T10:56:04.396Z,2.84
2022-12-31T10:57:06.299Z,1.61
2022-12-31T10:58:07.335Z,2.04
2022-12-31T10:59:10.004Z,2.43
2022-12-31T11:00:11.702Z,2.04
2022-12-31T11:01:13.372Z,2.44
2022-12-31T11:02:14.512Z,2.1
2022-12-31T11:03:16.380Z,2.41
2022-12-31T11:04:18.360Z,2.01
2022-12-31T11:05:20.379Z,1.66
2022-12-31T11:06:22.327Z,2.2
2022-12-31T11:07:24.338Z,1.24
2022-12-31T11:08:26.444Z,2.18
2022-12-31T11:09:32.798Z,2.01
2022-12-31T11:10:30.399Z,2.27
2022-12-31T11:11:32.499Z,1.26
2022-12-31T11:12:34.355Z,1.42
2022-12-31T11:13:36.534Z,1.61
2022-12-31T11:14:38.259Z,1.59
2022-12-31T11:15:39.422Z,1.72
2022-12-31T11:16:40.279Z,1.31
2022-12-31T11:17:41.956Z,1.96
2022-12-31T11:18:43.520Z,1.02
2022-12-31T11:19:45.341Z,1.23
2022-12-31T11:20:47.366Z,1.51
2022-12-31T11:21:49.376Z,1.04
2022-12-31T11:22:51.266Z,2.09
2022-12-31T11:23:52.379Z,2.68
2022-12-31T11:24:54.419Z,2.78
2022-12-31T11:25:56.659Z,1.07
2022-12-31T11:26:58.376Z,1.83
2022-12-31T11:28:00.399Z,2.54
2022-12-31T11:29:02.577Z,2.89
2022-12-31T11:30:04.374Z,1.98
2022-12-31T11:31:06.490Z,1.85
2022-12-31T11:32:08.534Z,1.55
2022-12-31T11:33:10.440Z,2.12
2022-12-31T11:34:12.457Z,1.67
2022-12-31T11:35:14.528Z,1.39
2022-12-31T11:36:16.503Z,1.26
2022-12-31T11:37:18.338Z,1.67
2022-12-31T11:38:20.386Z,2.07
2022-12-31T11:39:27.400Z,1.76
2022-12-31T11:40:24.475Z,1.2
2022-12-31T11:41:26.424Z,1.69
2022-12-31T11:42:28.513Z,1.55
2022-12-31T11:43:30.697Z,1.89
2022-12-31T11:44:32.416Z,2.35
2022-12-31T11:45:34.355Z,1.35
2022-12-31T11:46:36.504Z,2.57
2022-12-31T11:47:56.419Z,2
2022-12-31T11:48:40.394Z,1.81
2022-12-31T11:49:42.727Z,1.36
2022-12-31T11:50:44.396Z,2.34
2022-12-31T11:51:50.300Z,2.31
2022-12-31T11:52:48.943Z,2.52
2022-12-31T11:53:50.351Z,2.52
2022-12-31T11:54:52.388Z,1.49
2022-12-31T11:55:54.475Z,0.68
2022-12-31T11:56:56.495Z,0.94
2022-12-31T11:57:58.576Z,1.24
2022-12-31T11:59:03.618Z,1.04
2022-12-31T12:00:02.404Z,2.1
2022-12-31T12:01:05.103Z,1.62
2022-12-31T12:02:06.439Z,1.94
2022-12-31T12:03:08.530Z,1.68
2022-12-31T12:04:10.835Z,1.88
2022-12-31T12:05:12.341Z,1.69
2022-12-31T12:06:14.400Z,2.03
2022-12-31T12:07:16.339Z,2.13
2022-12-31T12:08:18.476Z,1.48
2022-12-31T12:09:20.351Z,1.25
2022-12-31T12:10:22.560Z,1.35
2022-12-31T12:11:24.498Z,1.86
2022-12-31T12:12:26.396Z,1.14
2022-12-31T12:13:28.644Z,1.49
2022-12-31T12:14:30.893Z,2.06
2022-12-31T12:15:32.375Z,2.54
2022-12-31T12:16:34.513Z,2.35
2022-12-31T12:17:36.511Z,2.48
2022-12-31T12:18:38.716Z,2.2
2022-12-31T12:19:40.557Z,1.39
2022-12-31T12:20:45.036Z,1.26
2022-12-31T12:21:46.414Z,1.67
2022-12-31T12:22:49.558Z,1.63
2022-12-31T12:23:50.439Z,1.5
2022-12-31T12:24:52.455Z,2.03
2022-12-31T12:25:55.118Z,1.88
2022-12-31T12:26:56.625Z,2.66
2022-12-31T12:27:58.454Z,2.64
2022-12-31T12:29:00.356Z,1.75
2022-12-31T12:30:03.014Z,2.03
2022-12-31T12:31:04.586Z,1.5
2022-12-31T12:32:06.426Z,1.79
2022-12-31T12:33:08.524Z,1.98
2022-12-31T12:34:10.437Z,1.66
2022-12-31T12:35:12.352Z,2.34
2022-12-31T12:36:13.348Z,1.73
2022-12-31T12:37:15.240Z,1.43
2022-12-31T12:38:16.567Z,2.04
2022-12-31T12:39:18.535Z,2.23
2022-12-31T12:40:20.396Z,1.49
2022-12-31T12:41:22.716Z,1.38
2022-12-31T12:42:24.503Z,1.37
2022-12-31T12:43:26.506Z,2.37
2022-12-31T12:44:28.456Z,1.62
2022-12-31T12:45:30.914Z,2.22
2022-12-31T12:46:32.484Z,1.78
2022-12-31T12:47:34.595Z,1.68
2022-12-31T12:48:36.563Z,2.05
2022-12-31T12:49:38.780Z,2.05
2022-12-31T12:50:40.521Z,2.62
2022-12-31T12:51:42.408Z,2.19
2022-12-31T12:52:44.296Z,1.83
2022-12-31T12:53:46.357Z,1
2022-12-31T12:54:48.428Z,1.58
2022-12-31T12:55:50.459Z,1.46
2022-12-31T12:56:52.461Z,2.24
2022-12-31T12:57:55.339Z,1.93
2022-12-31T12:58:56.644Z,2.12
2022-12-31T12:59:58.425Z,1.4
2022-12-31T13:01:00.508Z,1.46
2022-12-31T13:02:02.797Z,1.66
2022-12-31T13:03:04.540Z,1.61
2022-12-31T13:04:36.242Z,2.06
2022-12-31T13:05:08.531Z,1.31
2022-12-31T13:06:10.419Z,2.04
2022-12-31T13:07:12.422Z,1.32
2022-12-31T13:08:14.457Z,1.19
2022-12-31T13:09:16.389Z,1.42
2022-12-31T13:10:18.460Z,1.97
2022-12-31T13:11:20.377Z,1.41
2022-12-31T13:12:22.507Z,1.07
2022-12-31T13:13:25.338Z,1.5
2022-12-31T13:14:26.559Z,0.93
2022-12-31T13:15:28.458Z,0.81
2022-12-31T13:16:30.479Z,1.2
2022-12-31T13:17:32.427Z,0.79
2022-12-31T13:18:34.432Z,1.39
2022-12-31T13:19:36.468Z,1.51
2022-12-31T13:20:38.423Z,1.42
2022-12-31T13:21:40.461Z,1.5
2022-12-31T13:22:42.398Z,0.69
2022-12-31T13:23:44.619Z,1.05
2022-12-31T13:24:47.083Z,0.73
2022-12-31T13:25:48.495Z,1.05
2022-12-31T13:26:50.394Z,0.39
2022-12-31T13:27:52.719Z,0.94
2022-12-31T13:28:54.475Z,0.88
2022-12-31T13:29:56.918Z,0.62
2022-12-31T13:31:01.827Z,1.38
2022-12-31T13:31:59.410Z,0.75
2022-12-31T13:33:01.435Z,1.06
2022-12-31T13:34:03.635Z,0.7
2022-12-31T13:35:05.401Z,1.03
2022-12-31T13:36:06.375Z,1.36
2022-12-31T13:37:08.494Z,1.2
2022-12-31T13:38:10.415Z,0.8
2022-12-31T13:39:12.583Z,0.82
2022-12-31T13:40:14.577Z,1.62
2022-12-31T13:41:16.485Z,0.96
2022-12-31T13:42:18.329Z,1.15
2022-12-31T13:43:19.359Z,1.49
2022-12-31T13:44:20.378Z,1.59
2022-12-31T13:45:21.861Z,1.13
2022-12-31T13:46:23.416Z,1.23
2022-12-31T13:47:25.599Z,1.53
2022-12-31T13:48:27.374Z,1.56
2022-12-31T13:49:28.398Z,1.44
2022-12-31T13:50:30.462Z,0.99
2022-12-31T13:51:32.539Z,1.21
2022-12-31T13:52:34.414Z,1.37
2022-12-31T13:53:36.540Z,0.91
2022-12-31T13:54:38.535Z,1.55
2022-12-31T13:55:40.621Z,1.55